createdAt,value
2024-03-06T00:02:24.713Z,9.30
2024-03-06T00:04:51.570Z,9.32
2024-03-06T00:07:18.302Z,9.50
2024-03-06T00:09:45.860Z,9.56
2024-03-06T00:12:12.561Z,9.37
2024-03-06T00:14:40.517Z,9.25
2024-03-06T00:17:08.327Z,9.42
2024-03-06T00:19:35.412Z,9.32
2024-03-06T00:22:02.423Z,9.27
2024-03-06T00:24:29.326Z,9.31
2024-03-06T00:26:56.006Z,9.34
2024-03-06T00:29:22.604Z,9.32
2024-03-06T00:31:50.547Z,9.24
2024-03-06T00:34:17.191Z,9.23
2024-03-06T00:36:44.726Z,9.26
2024-03-06T00:39:11.477Z,9.14
2024-03-06T00:41:38.282Z,9.06
2024-03-06T00:44:05.138Z,8.93
2024-03-06T00:46:31.724Z,8.93
2024-03-06T00:48:59.718Z,8.86
2024-03-06T00:51:36.629Z,8.86
2024-03-06T00:54:08.315Z,8.92
2024-03-06T00:56:38.556Z,8.88
2024-03-06T00:59:05.192Z,8.86
2024-03-06T01:01:31.867Z,8.77
2024-03-06T01:03:59.828Z,8.76
2024-03-06T01:06:26.372Z,8.74
2024-03-06T01:08:53.035Z,8.74
2024-03-06T01:11:19.674Z,8.75
2024-03-06T01:13:46.368Z,8.69
2024-03-06T01:16:13.010Z,8.62
2024-03-06T01:18:39.583Z,8.68
2024-03-06T01:21:07.533Z,8.64
2024-03-06T01:23:34.162Z,8.68
2024-03-06T01:26:00.830Z,8.69
2024-03-06T01:28:27.385Z,8.62
2024-03-06T01:30:54.103Z,8.45
2024-03-06T01:33:20.819Z,8.45
2024-03-06T01:35:47.445Z,8.37
2024-03-06T01:38:16.985Z,8.42
2024-03-06T01:40:44.650Z,8.41
2024-03-06T01:43:20.358Z,8.39
2024-03-06T01:45:48.174Z,8.29
2024-03-06T01:48:15.181Z,8.24
2024-03-06T01:50:42.036Z,8.03
2024-03-06T01:53:09.296Z,8.12
2024-03-06T01:55:37.437Z,7.88
2024-03-06T01:58:04.779Z,7.75
2024-03-06T02:00:31.519Z,7.82
2024-03-06T02:02:58.114Z,7.92
2024-03-06T02:05:24.769Z,7.85
2024-03-06T02:07:53.949Z,7.98
2024-03-06T02:10:20.549Z,8.05
2024-03-06T02:12:50.015Z,8.09
2024-03-06T02:15:16.854Z,8.11
2024-03-06T02:17:43.480Z,8.03
2024-03-06T02:20:13.513Z,8.10
2024-03-06T02:22:41.699Z,8.15
2024-03-06T02:25:08.492Z,8.20
2024-03-06T02:27:35.088Z,8.22
2024-03-06T02:30:01.647Z,8.24
2024-03-06T02:32:28.442Z,8.20
2024-03-06T02:34:55.031Z,8.12
2024-03-06T02:37:21.677Z,8.19
2024-03-06T02:39:49.709Z,8.18
2024-03-06T02:42:16.312Z,8.23
2024-03-06T02:44:42.913Z,8.27
2024-03-06T02:47:09.769Z,8.28
2024-03-06T02:49:36.520Z,8.31
2024-03-06T02:52:03.527Z,8.35
2024-03-06T02:54:30.335Z,8.33
2024-03-06T02:56:58.343Z,8.29
2024-03-06T02:59:25.456Z,8.28
2024-03-06T03:01:52.003Z,8.23
2024-03-06T03:04:19.457Z,7.98
2024-03-06T03:06:45.966Z,8.09
2024-03-06T03:09:13.054Z,8.00
2024-03-06T03:11:39.850Z,7.92
2024-03-06T03:14:07.959Z,7.85
2024-03-06T03:16:34.732Z,7.83
2024-03-06T03:19:01.431Z,7.81
2024-03-06T03:21:27.994Z,7.82
2024-03-06T03:23:54.620Z,7.72
2024-03-06T03:26:21.887Z,7.79
2024-03-06T03:28:49.676Z,7.82
2024-03-06T03:31:17.640Z,7.86
2024-03-06T03:33:44.563Z,7.84
2024-03-06T03:36:11.216Z,7.86
2024-03-06T03:38:41.135Z,7.86
2024-03-06T03:41:08.971Z,7.75
2024-03-06T03:43:35.611Z,7.74
2024-03-06T03:46:02.180Z,7.62
2024-03-06T03:48:30.079Z,7.51
2024-03-06T03:50:56.668Z,7.56
2024-03-06T03:53:23.393Z,7.38
2024-03-06T03:55:49.972Z,7.44
2024-03-06T03:58:16.563Z,7.52
2024-03-06T04:00:43.670Z,7.45
2024-03-06T04:03:10.188Z,7.30
2024-03-06T04:05:38.182Z,7.37
2024-03-06T04:08:07.529Z,7.27
2024-03-06T04:10:34.874Z,7.28
2024-03-06T04:13:01.596Z,7.24
2024-03-06T04:15:28.251Z,7.33
2024-03-06T04:17:54.876Z,7.41
2024-03-06T04:20:21.484Z,7.34
2024-03-06T04:22:51.947Z,7.41
2024-03-06T04:25:19.119Z,7.36
2024-03-06T04:27:45.952Z,7.37
2024-03-06T04:30:15.959Z,7.37
2024-03-06T04:32:42.585Z,7.19
2024-03-06T04:35:12.961Z,7.08
2024-03-06T04:37:40.210Z,7.14
2024-03-06T04:40:09.769Z,7.20
2024-03-06T04:42:39.365Z,7.20
2024-03-06T04:45:12.193Z,7.25
2024-03-06T04:47:39.102Z,7.26
2024-03-06T04:50:09.581Z,7.21
2024-03-06T04:52:36.298Z,7.21
2024-03-06T04:55:04.144Z,7.21
2024-03-06T04:57:32.077Z,7.25
2024-03-06T04:59:59.595Z,7.30
2024-03-06T05:02:28.652Z,7.25
2024-03-06T05:59:49.621Z,6.73
2024-03-06T06:02:17.578Z,6.64
2024-03-06T06:04:51.746Z,6.64
2024-03-06T06:07:26.945Z,6.62
2024-03-06T06:09:53.546Z,6.58
2024-03-06T06:12:20.096Z,6.65
2024-03-06T06:14:46.616Z,6.51
2024-03-06T06:17:16.619Z,6.48
2024-03-06T06:19:45.059Z,6.50
2024-03-06T06:22:13.525Z,6.49
2024-03-06T06:24:40.257Z,6.54
2024-03-06T06:27:06.845Z,6.47
2024-03-06T06:29:33.516Z,6.61
2024-03-06T06:32:00.134Z,6.60
2024-03-06T06:34:29.708Z,6.56
2024-03-06T06:36:57.629Z,6.68
2024-03-06T06:39:24.231Z,6.72
2024-03-06T06:41:50.830Z,6.70
2024-03-06T06:44:17.495Z,6.63
2024-03-06T06:46:44.106Z,6.63
2024-03-06T06:49:10.723Z,6.77
2024-03-06T06:51:37.329Z,6.88
2024-03-06T06:54:05.445Z,7.05
2024-03-06T06:56:32.279Z,7.09
2024-03-06T06:58:59.059Z,7.17
2024-03-06T07:01:25.760Z,7.29
2024-03-06T07:03:53.071Z,7.40
2024-03-06T07:06:19.688Z,7.38
2024-03-06T07:08:46.406Z,7.47
2024-03-06T07:11:14.537Z,7.48
2024-03-06T07:13:41.212Z,7.52
2024-03-06T07:16:08.252Z,7.48
2024-03-06T07:18:34.945Z,7.59
2024-03-06T07:21:02.028Z,7.78
2024-03-06T07:23:28.625Z,7.86
2024-03-06T07:25:55.638Z,7.84
2024-03-06T07:28:23.568Z,7.99
2024-03-06T07:30:50.133Z,8.10
2024-03-06T07:33:16.736Z,7.97
2024-03-06T07:35:43.343Z,8.17
2024-03-06T07:38:10.989Z,8.34
2024-03-06T07:40:37.582Z,8.40
2024-03-06T07:43:05.331Z,8.28
2024-03-06T07:45:33.328Z,8.37
2024-03-06T07:47:59.962Z,8.44
2024-03-06T07:50:27.628Z,8.44
2024-03-06T07:52:55.843Z,8.50
2024-03-06T07:55:23.155Z,8.62
2024-03-06T07:57:49.779Z,8.51
2024-03-06T08:00:16.984Z,8.69
2024-03-06T08:02:44.967Z,8.68
2024-03-06T08:05:13.567Z,8.84
2024-03-06T08:07:42.967Z,8.91
2024-03-06T08:10:10.599Z,9.08
2024-03-06T08:12:37.240Z,9.06
2024-03-06T08:15:04.370Z,9.35
2024-03-06T08:17:31.019Z,9.64
2024-03-06T08:19:59.004Z,10.20
2024-03-06T08:22:25.528Z,11.16
2024-03-06T08:24:52.136Z,11.94
2024-03-06T08:27:18.719Z,13.21
2024-03-06T08:29:45.419Z,13.60
2024-03-06T08:32:12.157Z,13.60
2024-03-06T08:34:38.807Z,14.24
2024-03-06T08:37:07.278Z,14.61
2024-03-06T08:39:33.931Z,15.22
2024-03-06T08:42:01.483Z,15.09
2024-03-06T08:44:29.250Z,14.78
2024-03-06T08:46:55.898Z,14.47
2024-03-06T08:49:22.558Z,14.27
2024-03-06T08:51:49.140Z,13.62
2024-03-06T08:54:17.065Z,13.60
2024-03-06T08:56:44.885Z,13.52
2024-03-06T08:59:11.501Z,13.81
2024-03-06T09:01:38.093Z,13.96
2024-03-06T09:04:04.820Z,13.42
2024-03-06T09:06:31.415Z,13.78
2024-03-06T09:08:57.979Z,13.50
2024-03-06T09:11:26.038Z,13.67
2024-03-06T09:13:52.671Z,13.94
2024-03-06T09:16:19.419Z,13.85
2024-03-06T09:18:45.973Z,13.90
2024-03-06T09:21:12.533Z,13.56
2024-03-06T09:23:39.219Z,13.65
2024-03-06T09:26:07.088Z,13.54
2024-03-06T09:28:35.206Z,13.75
2024-03-06T09:31:02.447Z,13.48
2024-03-06T09:33:29.033Z,13.47
2024-03-06T09:35:58.542Z,13.22
2024-03-06T09:38:25.251Z,13.51
2024-03-06T09:40:52.966Z,13.58
2024-03-06T09:43:19.590Z,13.23
2024-03-06T09:45:49.782Z,13.31
2024-03-06T09:48:17.686Z,13.36
2024-03-06T09:50:46.488Z,13.40
2024-03-06T09:53:13.902Z,13.22
2024-03-06T09:55:42.082Z,13.40
2024-03-06T09:58:09.686Z,13.50
2024-03-06T10:00:36.863Z,13.53
2024-03-06T10:03:09.599Z,13.67
2024-03-06T10:05:36.392Z,13.71
2024-03-06T10:08:03.385Z,13.70
2024-03-06T10:10:29.974Z,13.91
2024-03-06T10:12:58.502Z,13.76
2024-03-06T10:15:27.644Z,13.93
2024-03-06T10:17:54.363Z,13.93
2024-03-06T10:20:23.660Z,13.94
2024-03-06T10:22:53.942Z,13.95
2024-03-06T10:25:22.809Z,14.17
2024-03-06T10:28:04.337Z,14.25
2024-03-06T10:30:31.852Z,14.22
2024-03-06T10:32:59.445Z,14.22
2024-03-06T10:35:27.453Z,14.36
2024-03-06T10:37:55.707Z,14.39
2024-03-06T10:40:24.032Z,14.31
2024-03-06T10:42:50.748Z,14.64
2024-03-06T10:45:17.830Z,14.64
2024-03-06T10:47:51.413Z,14.90
2024-03-06T10:50:19.812Z,15.09
2024-03-06T10:52:48.461Z,15.18
2024-03-06T10:55:16.830Z,15.02
2024-03-06T10:57:44.094Z,15.23
2024-03-06T11:00:11.241Z,15.03
2024-03-06T11:02:39.056Z,15.10
2024-03-06T11:05:06.711Z,15.22
2024-03-06T11:07:33.931Z,15.23
2024-03-06T11:10:02.568Z,15.07
2024-03-06T11:12:36.971Z,15.24
2024-03-06T11:15:10.323Z,15.73
2024-03-06T11:17:37.672Z,15.71
2024-03-06T11:20:26.772Z,15.66
2024-03-06T11:23:11.993Z,15.34
2024-03-06T11:26:05.439Z,15.53
2024-03-06T11:28:33.932Z,15.49
2024-03-06T11:31:02.545Z,15.29
2024-03-06T11:33:39.617Z,15.62
2024-03-06T11:36:19.983Z,15.73
2024-03-06T11:38:53.999Z,15.94
2024-03-06T11:41:25.758Z,15.82
2024-03-06T11:43:56.933Z,15.70
2024-03-06T11:46:24.522Z,15.98
2024-03-06T11:48:55.121Z,16.13
2024-03-06T11:51:22.224Z,15.73
2024-03-06T11:53:50.764Z,16.11
2024-03-06T11:56:18.538Z,16.04
2024-03-06T11:58:49.300Z,15.98
2024-03-06T12:01:16.463Z,16.10
2024-03-06T12:03:43.408Z,15.95
2024-03-06T12:06:10.456Z,16.27
2024-03-06T12:08:39.861Z,16.04
2024-03-06T12:11:06.703Z,15.28
2024-03-06T12:13:33.647Z,14.94
2024-03-06T12:16:05.245Z,14.91
2024-03-06T12:18:31.901Z,14.76
2024-03-06T12:21:01.753Z,14.90
2024-03-06T12:23:28.401Z,14.82
2024-03-06T12:28:31.811Z,14.79
2024-03-06T12:31:02.095Z,14.93
2024-03-06T12:33:30.133Z,14.77
2024-03-06T12:36:04.150Z,14.99
2024-03-06T12:38:30.978Z,15.11
2024-03-06T12:40:57.602Z,15.19
2024-03-06T12:43:25.240Z,15.26
2024-03-06T12:45:52.062Z,15.48
2024-03-06T12:48:18.723Z,15.66
2024-03-06T12:50:52.323Z,15.53
2024-03-06T12:53:19.855Z,15.46
2024-03-06T12:55:46.929Z,15.56
2024-03-06T12:58:13.636Z,15.65
2024-03-06T13:00:40.452Z,15.75
2024-03-06T13:03:07.777Z,15.90
2024-03-06T13:05:34.532Z,15.80
2024-03-06T13:08:02.732Z,15.68
2024-03-06T13:10:29.460Z,15.83
2024-03-06T13:12:56.110Z,15.88
2024-03-06T13:15:23.159Z,15.79
2024-03-06T13:17:49.944Z,15.55
2024-03-06T13:20:16.987Z,15.63
2024-03-06T13:22:45.194Z,15.76
2024-03-06T13:25:13.177Z,16.00
2024-03-06T13:27:39.692Z,16.25
2024-03-06T13:30:09.350Z,16.09
2024-03-06T13:32:36.313Z,16.24
2024-03-06T13:35:03.394Z,16.36
2024-03-06T13:37:30.143Z,16.34
2024-03-06T13:40:01.572Z,16.48
2024-03-06T13:42:29.741Z,16.06
2024-03-06T13:44:56.887Z,16.25
2024-03-06T13:47:23.473Z,16.11
2024-03-06T13:49:50.422Z,15.92
2024-03-06T13:52:21.056Z,16.38
2024-03-06T13:54:51.078Z,16.42
2024-03-06T13:57:17.639Z,16.56
2024-03-06T13:59:45.770Z,16.73
2024-03-06T14:02:12.474Z,16.36
2024-03-06T14:04:39.088Z,16.55
2024-03-06T14:07:05.767Z,16.30
2024-03-06T14:09:32.424Z,16.30
2024-03-06T14:11:59.419Z,16.12
2024-03-06T14:14:26.438Z,16.28
2024-03-06T14:16:54.479Z,16.35
2024-03-06T14:19:22.669Z,16.22
2024-03-06T14:21:49.234Z,16.57
2024-03-06T14:24:15.967Z,16.43
2024-03-06T14:26:42.957Z,16.34
2024-03-06T14:29:10.790Z,16.28
2024-03-06T14:31:37.732Z,16.58
2024-03-06T14:34:06.926Z,16.40
2024-03-06T14:36:35.258Z,16.64
2024-03-06T14:39:02.089Z,16.52
2024-03-06T14:41:28.825Z,16.24
2024-03-06T14:43:55.569Z,16.35
2024-03-06T14:46:22.271Z,16.44
2024-03-06T14:48:48.969Z,16.48
2024-03-06T14:51:16.992Z,16.64
2024-03-06T14:53:43.804Z,16.54
2024-03-06T14:56:11.926Z,16.86
2024-03-06T14:58:39.066Z,16.84
2024-03-06T15:01:06.167Z,16.58
2024-03-06T15:03:32.898Z,16.60
2024-03-06T15:05:59.572Z,16.59
2024-03-06T15:08:27.630Z,16.05
2024-03-06T15:10:55.192Z,16.44
2024-03-06T15:13:23.884Z,16.37
2024-03-06T15:15:51.693Z,16.47
2024-03-06T15:18:18.850Z,16.28
2024-03-06T15:20:45.825Z,16.58
2024-03-06T15:23:12.672Z,16.44
2024-03-06T15:25:40.787Z,16.32
2024-03-06T15:28:07.565Z,16.10
2024-03-06T15:30:35.641Z,15.97
2024-03-06T15:33:04.189Z,16.16
2024-03-06T15:35:31.061Z,15.80
2024-03-06T15:37:57.690Z,16.13
2024-03-06T15:40:24.373Z,16.02
2024-03-06T15:42:54.250Z,16.06
2024-03-06T15:45:23.258Z,15.75
2024-03-06T15:47:49.953Z,15.69
2024-03-06T15:50:16.780Z,15.73
2024-03-06T15:52:43.467Z,15.47
2024-03-06T15:55:10.778Z,15.52
2024-03-06T15:57:37.440Z,15.37
2024-03-06T16:00:10.505Z,15.27
2024-03-06T16:02:37.144Z,15.52
2024-03-06T16:05:04.124Z,15.41
2024-03-06T16:07:34.520Z,15.26
2024-03-06T16:10:02.458Z,15.29
2024-03-06T16:12:29.066Z,15.32
2024-03-06T16:14:55.785Z,15.25
2024-03-06T16:17:23.731Z,15.40
2024-03-06T16:19:50.340Z,15.41
2024-03-06T16:22:16.857Z,15.27
2024-03-06T16:24:44.004Z,15.32
2024-03-06T16:27:10.453Z,15.30
2024-03-06T16:29:37.143Z,15.23
2024-03-06T16:32:04.451Z,14.98
2024-03-06T16:34:33.700Z,14.97
2024-03-06T16:37:00.731Z,14.99
2024-03-06T16:39:27.341Z,15.14
2024-03-06T16:41:53.961Z,15.18
2024-03-06T16:44:21.970Z,14.99
2024-03-06T16:46:50.095Z,15.04
2024-03-06T16:49:16.611Z,14.87
2024-03-06T16:51:44.589Z,14.82
2024-03-06T16:54:11.127Z,14.84
2024-03-06T16:56:39.309Z,14.79
2024-03-06T16:59:08.193Z,14.67
2024-03-06T17:01:34.925Z,14.57
2024-03-06T17:04:01.591Z,14.49
2024-03-06T17:06:32.232Z,14.39
2024-03-06T17:09:00.296Z,14.44
2024-03-06T17:11:27.002Z,14.30
2024-03-06T17:13:53.735Z,14.27
2024-03-06T17:16:20.319Z,14.28
2024-03-06T17:18:46.986Z,14.22
2024-03-06T17:21:13.812Z,14.09
2024-03-06T17:23:40.416Z,14.08
2024-03-06T17:26:11.711Z,14.06
2024-03-06T17:28:41.158Z,14.12
2024-03-06T17:31:08.365Z,13.92
2024-03-06T17:33:34.794Z,13.82
2024-03-06T17:36:01.482Z,13.70
2024-03-06T17:38:29.081Z,13.80
2024-03-06T17:40:55.683Z,13.68
2024-03-06T17:43:23.618Z,13.77
2024-03-06T17:45:50.463Z,13.49
2024-03-06T17:48:17.170Z,13.51
2024-03-06T17:50:45.923Z,13.57
2024-03-06T17:53:14.211Z,13.52
2024-03-06T17:55:40.890Z,13.51
2024-03-06T17:58:07.950Z,13.44
2024-03-06T18:00:35.880Z,13.43
2024-03-06T18:03:02.570Z,13.31
2024-03-06T18:05:29.208Z,13.24
2024-03-06T18:07:56.671Z,13.06
2024-03-06T18:10:24.051Z,13.06
2024-03-06T18:12:50.430Z,13.10
2024-03-06T18:15:17.161Z,13.00
2024-03-06T18:17:45.177Z,12.95
2024-03-06T18:20:12.595Z,12.92
2024-03-06T18:22:39.242Z,12.85
2024-03-06T18:25:07.974Z,12.80
2024-03-06T18:27:35.008Z,12.64
2024-03-06T18:30:01.641Z,12.73
2024-03-06T18:32:29.888Z,12.69
2024-03-06T18:34:59.025Z,12.44
2024-03-06T18:37:26.040Z,12.36
2024-03-06T18:39:54.433Z,12.53
2024-03-06T18:42:22.266Z,12.50
2024-03-06T18:44:49.795Z,12.27
2024-03-06T18:47:16.788Z,12.34
2024-03-06T18:49:43.434Z,12.33
2024-03-06T18:52:11.670Z,12.29
2024-03-06T18:54:40.591Z,12.29
2024-03-06T18:57:07.619Z,12.26
2024-03-06T18:59:34.546Z,12.20
2024-03-06T19:02:01.398Z,12.17
2024-03-06T19:04:28.004Z,12.09
2024-03-06T19:06:54.614Z,12.13
2024-03-06T19:09:22.616Z,12.02
2024-03-06T19:11:51.471Z,11.91
2024-03-06T19:14:18.299Z,11.82
2024-03-06T19:16:45.044Z,11.86
2024-03-06T19:19:11.661Z,11.88
2024-03-06T19:21:38.407Z,11.82
2024-03-06T19:24:05.371Z,11.80
2024-03-06T19:26:36.645Z,11.83
2024-03-06T19:29:03.544Z,11.76
2024-03-06T19:31:31.966Z,11.84
2024-03-06T19:33:59.515Z,11.79
2024-03-06T19:36:26.275Z,11.76
2024-03-06T19:38:52.855Z,11.76
2024-03-06T19:41:19.604Z,11.78
2024-03-06T19:43:47.575Z,11.72
2024-03-06T19:46:14.122Z,11.58
2024-03-06T19:48:41.532Z,11.51
2024-03-06T19:51:09.221Z,11.47
2024-03-06T19:53:35.980Z,11.47
2024-03-06T19:56:03.046Z,11.42
2024-03-06T19:58:29.618Z,11.25
2024-03-06T20:00:57.669Z,11.17
2024-03-06T20:03:24.194Z,11.22
2024-03-06T20:05:50.898Z,10.89
2024-03-06T20:08:17.758Z,11.16
2024-03-06T20:10:44.563Z,10.94
2024-03-06T20:13:11.224Z,11.05
2024-03-06T20:15:37.801Z,11.04
2024-03-06T20:18:09.075Z,10.94
2024-03-06T20:20:35.748Z,11.00
2024-03-06T20:23:08.093Z,11.10
2024-03-06T20:25:35.478Z,10.83
2024-03-06T20:28:02.213Z,10.97
2024-03-06T20:30:28.852Z,10.90
2024-03-06T20:32:55.737Z,10.93
2024-03-06T20:35:24.910Z,10.71
2024-03-06T20:37:51.767Z,10.96
2024-03-06T20:40:18.568Z,10.93
2024-03-06T20:42:45.980Z,10.84
2024-03-06T20:45:14.012Z,10.71
2024-03-06T20:47:44.033Z,10.80
2024-03-06T20:50:11.658Z,10.76
2024-03-06T20:52:40.978Z,10.63
2024-03-06T20:55:08.657Z,10.69
2024-03-06T20:57:35.231Z,10.58
2024-03-06T21:00:01.864Z,10.48
2024-03-06T21:02:28.436Z,10.55
2024-03-06T21:04:55.492Z,10.54
2024-03-06T21:07:22.349Z,10.59
2024-03-06T21:09:50.375Z,10.53
2024-03-06T21:12:17.179Z,10.53
2024-03-06T21:14:44.897Z,10.48
2024-03-06T21:17:11.727Z,10.57
2024-03-06T21:19:38.643Z,10.62
2024-03-06T21:22:05.902Z,10.55
2024-03-06T21:24:33.665Z,10.62
2024-03-06T21:27:03.250Z,10.48
2024-03-06T21:29:30.807Z,10.58
2024-03-06T21:31:57.626Z,10.59
2024-03-06T21:34:24.253Z,10.57
2024-03-06T21:36:50.915Z,10.62
2024-03-06T21:39:17.442Z,10.49
2024-03-06T21:41:44.214Z,10.42
2024-03-06T21:44:12.255Z,10.39
2024-03-06T21:46:38.962Z,10.51
2024-03-06T21:49:05.590Z,10.47
2024-03-06T21:51:32.129Z,10.44
2024-03-06T21:53:59.639Z,10.46
2024-03-06T21:56:26.318Z,10.45
2024-03-06T21:58:52.968Z,10.43
2024-03-06T22:01:21.901Z,10.36
2024-03-06T22:03:48.544Z,10.43
2024-03-06T22:06:15.287Z,10.30
2024-03-06T22:08:43.609Z,10.39
2024-03-06T22:11:12.555Z,10.30
2024-03-06T22:13:39.386Z,10.25
2024-03-06T22:16:06.238Z,10.22
2024-03-06T22:18:34.241Z,10.13
2024-03-06T22:21:00.898Z,10.14
2024-03-06T22:23:29.953Z,10.15
2024-03-06T22:25:56.606Z,10.15
2024-03-06T22:28:23.245Z,10.17
2024-03-06T22:30:49.852Z,10.21
2024-03-06T22:33:16.469Z,10.12
2024-03-06T22:35:45.962Z,10.12
2024-03-06T22:38:12.974Z,10.12
2024-03-06T22:40:39.610Z,10.04
2024-03-06T22:43:06.441Z,9.95
2024-03-06T22:45:33.267Z,9.95
2024-03-06T22:48:00.108Z,9.93
2024-03-06T22:50:27.103Z,9.98
2024-03-06T22:52:55.071Z,9.88
2024-03-06T22:55:22.299Z,9.87
2024-03-06T22:57:48.915Z,9.83
2024-03-06T23:00:30.230Z,9.87
2024-03-06T23:02:57.758Z,9.79
2024-03-06T23:05:25.317Z,9.68
2024-03-06T23:07:52.314Z,9.66
2024-03-06T23:10:20.731Z,9.66
2024-03-06T23:12:47.958Z,9.60
2024-03-06T23:15:15.980Z,9.64
2024-03-06T23:17:45.775Z,9.70
2024-03-06T23:20:15.129Z,9.57
2024-03-06T23:22:42.372Z,9.54
2024-03-06T23:25:09.917Z,9.51
2024-03-06T23:27:37.983Z,9.58
2024-03-06T23:30:08.234Z,9.54
2024-03-06T23:32:35.673Z,9.49
2024-03-06T23:35:04.779Z,9.41
2024-03-06T23:37:31.726Z,9.40
2024-03-06T23:39:58.281Z,9.42
2024-03-06T23:42:24.820Z,9.34
2024-03-06T23:44:52.749Z,9.32
2024-03-06T23:47:19.377Z,9.35
2024-03-06T23:49:45.904Z,9.12
2024-03-06T23:52:16.790Z,9.19
2024-03-06T23:54:43.397Z,9.23
2024-03-06T23:57:10.228Z,9.30
2024-03-06T23:59:36.864Z,9.33
